createdAt,value
2024-05-09T00:01:03.250Z,6.60
2024-05-09T00:02:06.397Z,5.60
2024-05-09T00:03:12.285Z,6.00
2024-05-09T00:04:16.128Z,5.40
2024-05-09T00:05:21.640Z,5.60
2024-05-09T00:06:25.251Z,4.70
2024-05-09T00:07:27.919Z,5.40
2024-05-09T00:08:30.572Z,4.20
2024-05-09T00:09:33.881Z,5.10
2024-05-09T00:10:39.986Z,4.00
2024-05-09T00:11:43.097Z,4.70
2024-05-09T00:12:47.628Z,4.40
2024-05-09T00:13:52.575Z,5.00
2024-05-09T00:14:58.225Z,4.90
2024-05-09T00:16:02.300Z,5.64
2024-05-09T00:18:27.629Z,4.10
2024-05-09T00:19:32.155Z,6.00
2024-05-09T00:20:42.615Z,5.20
2024-05-09T00:21:55.583Z,4.00
2024-05-09T00:22:57.801Z,5.10
2024-05-09T00:24:03.731Z,4.60
2024-05-09T00:25:06.725Z,5.00
2024-05-09T00:26:09.404Z,5.10
2024-05-09T00:27:13.596Z,4.90
2024-05-09T00:28:17.475Z,5.70
2024-05-09T00:29:21.153Z,5.10
2024-05-09T00:30:34.134Z,5.20
2024-05-09T00:31:33.077Z,5.30
2024-05-09T00:32:41.485Z,6.50
2024-05-09T00:33:46.325Z,5.00
2024-05-09T00:34:53.218Z,5.50
2024-05-09T00:35:58.497Z,5.20
2024-05-09T00:37:05.035Z,5.40
2024-05-09T00:38:08.551Z,3.80
2024-05-09T00:39:12.155Z,5.50
2024-05-09T00:40:22.872Z,5.70
2024-05-09T00:41:21.581Z,5.20
2024-05-09T00:42:24.387Z,5.20
2024-05-09T00:43:28.079Z,5.50
2024-05-09T00:44:32.450Z,5.50
2024-05-09T00:45:36.831Z,5.10
2024-05-09T00:46:40.606Z,5.80
2024-05-09T00:47:45.134Z,5.00
2024-05-09T00:48:52.870Z,4.40
2024-05-09T00:50:00.935Z,5.00
2024-05-09T00:51:07.159Z,5.20
2024-05-09T00:52:12.276Z,5.00
2024-05-09T00:53:18.252Z,5.30
2024-05-09T00:54:25.935Z,5.00
2024-05-09T00:55:29.793Z,4.50
2024-05-09T00:56:34.829Z,4.30
2024-05-09T00:57:40.660Z,4.60
2024-05-09T00:58:46.245Z,5.70
2024-05-09T00:59:49.653Z,5.00
2024-05-09T01:00:52.809Z,5.00
2024-05-09T01:02:03.677Z,3.60
2024-05-09T01:03:06.383Z,4.50
2024-05-09T01:04:11.619Z,4.50
2024-05-09T01:05:16.796Z,4.70
2024-05-09T01:06:22.365Z,3.80
2024-05-09T01:07:28.070Z,4.50
2024-05-09T01:08:30.959Z,4.70
2024-05-09T01:09:35.969Z,4.60
2024-05-09T01:10:42.842Z,4.20
2024-05-09T01:11:44.869Z,3.80
2024-05-09T01:12:49.394Z,4.00
2024-05-09T01:13:53.212Z,4.64
2024-05-09T01:14:59.374Z,4.40
2024-05-09T01:16:04.519Z,4.70
2024-05-09T01:17:09.014Z,4.70
2024-05-09T01:18:18.421Z,2.90
2024-05-09T01:19:28.063Z,3.10
2024-05-09T01:20:40.880Z,3.90
2024-05-09T01:21:41.134Z,3.80
2024-05-09T01:22:47.696Z,3.10
2024-05-09T01:23:51.247Z,3.70
2024-05-09T01:24:56.894Z,3.50
2024-05-09T01:26:00.190Z,3.20
2024-05-09T01:27:04.946Z,3.80
2024-05-09T01:28:11.602Z,3.30
2024-05-09T01:29:16.054Z,2.60
2024-05-09T01:30:34.684Z,3.40
2024-05-09T01:31:34.488Z,3.30
2024-05-09T01:32:47.935Z,4.10
2024-05-09T01:33:52.267Z,3.00
2024-05-09T01:34:54.684Z,3.00
2024-05-09T01:35:57.510Z,2.90
2024-05-09T01:37:01.707Z,3.00
2024-05-09T01:38:09.399Z,2.00
2024-05-09T01:39:15.184Z,2.50
2024-05-09T01:40:28.684Z,2.90
2024-05-09T01:41:42.544Z,3.00
2024-05-09T01:42:50.699Z,2.80
2024-05-09T01:43:57.850Z,2.50
2024-05-09T01:45:11.728Z,3.00
2024-05-09T01:46:17.569Z,3.00
2024-05-09T01:47:21.355Z,3.40
2024-05-09T01:48:27.528Z,2.60
2024-05-09T01:49:35.742Z,2.50
2024-05-09T01:50:43.158Z,3.10
2024-05-09T01:51:47.686Z,3.80
2024-05-09T01:52:50.552Z,2.30
2024-05-09T01:53:55.688Z,3.60
2024-05-09T01:55:03.441Z,3.60
2024-05-09T01:56:08.868Z,2.80
2024-05-09T01:58:35.960Z,3.10
2024-05-09T01:59:40.245Z,3.00
2024-05-09T02:00:44.012Z,2.20
2024-05-09T02:01:56.692Z,3.60
2024-05-09T02:02:53.839Z,2.80
2024-05-09T02:03:57.332Z,2.50
2024-05-09T02:05:02.158Z,2.18
2024-05-09T02:06:06.545Z,3.10
2024-05-09T02:07:10.987Z,2.50
2024-05-09T02:08:16.843Z,3.30
2024-05-09T02:09:23.201Z,2.50
2024-05-09T02:10:32.466Z,2.80
2024-05-09T02:12:30.866Z,2.90
2024-05-09T02:13:33.138Z,2.45
2024-05-09T02:14:35.342Z,2.10
2024-05-09T02:15:37.612Z,2.30
2024-05-09T02:16:39.854Z,2.50
2024-05-09T02:17:42.509Z,2.60
2024-05-09T02:18:44.918Z,1.80
2024-05-09T02:19:47.068Z,2.00
2024-05-09T02:20:49.512Z,2.10
2024-05-09T02:21:51.850Z,2.80
2024-05-09T02:22:54.035Z,2.30
2024-05-09T02:23:56.082Z,2.50
2024-05-09T02:24:58.410Z,2.50
2024-05-09T02:26:00.663Z,2.20
2024-05-09T02:27:03.059Z,3.20
2024-05-09T02:28:05.544Z,2.00
2024-05-09T02:29:07.648Z,2.50
2024-05-09T02:30:18.777Z,2.60
2024-05-09T02:31:15.267Z,3.00
2024-05-09T02:32:17.542Z,2.70
2024-05-09T02:33:19.766Z,2.70
2024-05-09T02:34:22.478Z,2.60
2024-05-09T02:35:26.039Z,2.09
2024-05-09T02:36:28.413Z,2.00
2024-05-09T02:37:31.015Z,2.70
2024-05-09T02:38:33.157Z,3.20
2024-05-09T02:39:35.762Z,2.20
2024-05-09T02:40:39.667Z,2.90
2024-05-09T02:41:42.390Z,2.80
2024-05-09T02:42:44.487Z,2.20
2024-05-09T02:43:46.760Z,3.00
2024-05-09T02:44:48.966Z,2.90
2024-05-09T02:45:51.239Z,2.40
2024-05-09T02:46:53.696Z,2.70
2024-05-09T02:47:55.947Z,2.20
2024-05-09T02:48:58.685Z,2.30
2024-05-09T02:50:00.996Z,2.50
2024-05-09T02:51:03.801Z,2.30
2024-05-09T02:52:06.333Z,2.00
2024-05-09T02:53:09.688Z,2.30
2024-05-09T02:54:12.236Z,2.40
2024-05-09T02:55:14.370Z,3.00
2024-05-09T02:56:16.717Z,2.40
2024-05-09T02:57:18.896Z,2.80
2024-05-09T02:58:20.944Z,2.40
2024-05-09T02:59:23.123Z,2.10
2024-05-09T03:00:34.564Z,3.30
2024-05-09T03:01:29.643Z,3.00
2024-05-09T03:02:32.047Z,2.20
2024-05-09T03:03:34.549Z,2.20
2024-05-09T03:04:38.415Z,2.00
2024-05-09T03:05:42.606Z,2.60
2024-05-09T03:06:45.053Z,1.90
2024-05-09T03:07:47.496Z,2.00
2024-05-09T03:08:49.777Z,2.70
2024-05-09T03:09:52.003Z,2.50
2024-05-09T03:10:54.632Z,2.30
2024-05-09T03:11:57.195Z,1.70
2024-05-09T03:12:59.594Z,2.90
2024-05-09T03:14:02.106Z,3.00
2024-05-09T03:15:05.060Z,3.30
2024-05-09T03:16:07.504Z,0.70
2024-05-09T03:17:09.683Z,2.50
2024-05-09T03:18:13.084Z,2.30
2024-05-09T03:19:15.761Z,2.50
2024-05-09T03:20:23.694Z,2.00
2024-05-09T03:21:22.128Z,2.60
2024-05-09T03:22:25.703Z,2.70
2024-05-09T03:23:28.648Z,3.20
2024-05-09T03:24:30.821Z,2.09
2024-05-09T03:25:35.476Z,1.90
2024-05-09T03:26:37.912Z,1.91
2024-05-09T03:27:40.189Z,2.50
2024-05-09T03:28:43.066Z,2.00
2024-05-09T03:29:45.422Z,2.55
2024-05-09T03:30:47.588Z,2.40
2024-05-09T03:31:49.903Z,2.30
2024-05-09T03:32:52.208Z,2.80
2024-05-09T03:33:54.726Z,2.00
2024-05-09T03:34:57.204Z,2.00
2024-05-09T03:35:59.420Z,2.40
2024-05-09T03:37:01.769Z,2.00
2024-05-09T03:38:04.448Z,2.70
2024-05-09T03:39:11.742Z,2.40
2024-05-09T03:40:20.475Z,2.20
2024-05-09T03:41:21.389Z,1.60
2024-05-09T03:42:23.757Z,2.90
2024-05-09T03:43:26.199Z,2.40
2024-05-09T03:44:28.452Z,2.80
2024-05-09T03:45:30.944Z,2.30
2024-05-09T03:46:39.841Z,3.00
2024-05-09T03:47:42.338Z,2.40
2024-05-09T03:48:44.929Z,1.90
2024-05-09T03:49:47.244Z,2.00
2024-05-09T03:50:49.930Z,2.50
2024-05-09T03:51:52.209Z,2.00
2024-05-09T03:52:54.678Z,2.10
2024-05-09T03:53:57.452Z,2.30
2024-05-09T03:55:01.315Z,2.10
2024-05-09T03:56:07.041Z,2.00
2024-05-09T03:57:09.244Z,2.50
2024-05-09T03:58:11.831Z,2.50
2024-05-09T03:59:14.263Z,2.00
2024-05-09T04:00:22.567Z,2.50
2024-05-09T04:01:21.272Z,2.00
2024-05-09T04:02:23.621Z,2.00
2024-05-09T04:03:26.530Z,2.80
2024-05-09T04:04:28.956Z,2.00
2024-05-09T04:05:31.904Z,2.50
2024-05-09T04:06:34.897Z,2.70
2024-05-09T04:07:37.355Z,2.40
2024-05-09T04:08:39.778Z,2.20
2024-05-09T04:09:42.165Z,2.40
2024-05-09T04:10:45.091Z,1.80
2024-05-09T04:11:47.204Z,3.00
2024-05-09T04:12:49.475Z,1.60
2024-05-09T04:13:51.597Z,2.00
2024-05-09T04:14:54.139Z,1.80
2024-05-09T04:15:56.282Z,2.10
2024-05-09T04:16:58.916Z,2.00
2024-05-09T04:18:01.918Z,1.60
2024-05-09T04:19:04.943Z,0.00
2024-05-09T04:20:10.573Z,2.00
2024-05-09T04:21:12.590Z,2.00
2024-05-09T04:22:14.846Z,2.40
2024-05-09T04:23:17.030Z,2.80
2024-05-09T04:24:19.161Z,2.50
2024-05-09T04:25:23.206Z,2.70
2024-05-09T04:26:25.703Z,2.80
2024-05-09T04:27:27.758Z,2.50
2024-05-09T04:28:30.091Z,1.78
2024-05-09T04:29:32.442Z,1.70
2024-05-09T04:30:38.921Z,1.20
2024-05-09T04:31:38.731Z,2.00
2024-05-09T04:32:40.954Z,1.80
2024-05-09T04:33:43.309Z,2.10
2024-05-09T04:34:45.741Z,1.50
2024-05-09T04:35:47.938Z,1.60
2024-05-09T04:36:50.150Z,2.40
2024-05-09T04:37:52.133Z,2.00
2024-05-09T04:38:54.221Z,1.80
2024-05-09T04:39:56.386Z,2.10
2024-05-09T04:40:59.150Z,1.60
2024-05-09T04:42:02.158Z,2.00
2024-05-09T04:43:05.471Z,1.90
2024-05-09T04:44:08.528Z,2.50
2024-05-09T04:45:11.194Z,1.82
2024-05-09T04:46:14.289Z,1.40
2024-05-09T04:47:17.033Z,1.80
2024-05-09T04:48:19.435Z,1.50
2024-05-09T04:49:22.223Z,2.20
2024-05-09T04:50:33.899Z,1.70
2024-05-09T04:51:28.468Z,1.80
2024-05-09T04:52:30.525Z,2.44
2024-05-09T04:53:33.163Z,1.90
2024-05-09T04:54:36.617Z,2.70
2024-05-09T04:55:40.317Z,2.00
2024-05-09T04:56:43.312Z,1.00
2024-05-09T04:57:45.841Z,1.30
2024-05-09T04:58:48.164Z,1.40
2024-05-09T04:59:51.781Z,2.00
2024-05-09T05:00:54.022Z,1.60
2024-05-09T05:01:56.254Z,1.60
2024-05-09T05:02:58.571Z,2.00
2024-05-09T05:04:00.984Z,1.80
2024-05-09T05:05:03.830Z,0.90
2024-05-09T05:06:06.695Z,1.50
2024-05-09T05:07:08.888Z,1.30
2024-05-09T05:08:12.572Z,1.20
2024-05-09T05:09:15.215Z,1.40
2024-05-09T05:10:25.273Z,2.20
2024-05-09T05:11:21.967Z,0.70
2024-05-09T05:12:24.294Z,1.20
2024-05-09T05:13:32.812Z,1.90
2024-05-09T05:14:34.984Z,1.10
2024-05-09T05:15:36.944Z,2.00
2024-05-09T05:16:39.137Z,1.10
2024-05-09T05:17:41.914Z,1.10
2024-05-09T05:18:44.446Z,1.18
2024-05-09T05:19:47.137Z,1.00
2024-05-09T05:20:50.122Z,0.20
2024-05-09T05:21:52.156Z,1.20
2024-05-09T05:22:54.468Z,1.00
2024-05-09T05:23:56.847Z,1.20
2024-05-09T05:24:59.018Z,2.00
2024-05-09T05:26:08.707Z,1.70
2024-05-09T05:27:10.577Z,1.20
2024-05-09T05:28:18.313Z,0.89
2024-05-09T05:29:23.758Z,1.00
2024-05-09T05:30:34.299Z,1.50
2024-05-09T05:31:33.981Z,1.80
2024-05-09T05:32:40.467Z,1.50
2024-05-09T05:33:43.275Z,1.20
2024-05-09T05:34:47.674Z,1.10
2024-05-09T05:35:50.942Z,1.20
2024-05-09T05:36:56.818Z,1.50
2024-05-09T05:38:00.254Z,1.60
2024-05-09T05:39:06.239Z,1.20
2024-05-09T05:40:17.444Z,2.10
2024-05-09T05:41:16.160Z,2.10
2024-05-09T05:42:22.005Z,1.00
2024-05-09T05:43:27.950Z,1.40
2024-05-09T05:44:30.551Z,1.20
2024-05-09T05:45:33.465Z,1.00
2024-05-09T05:46:38.797Z,1.00
2024-05-09T05:47:43.452Z,2.10
2024-05-09T05:48:46.796Z,2.10
2024-05-09T05:49:53.290Z,1.90
2024-05-09T05:51:04.198Z,1.00
2024-05-09T05:52:06.459Z,1.50
2024-05-09T05:53:10.918Z,1.30
2024-05-09T05:54:22.028Z,2.30
2024-05-09T05:55:30.900Z,1.20
2024-05-09T05:56:34.825Z,1.50
2024-05-09T05:57:38.967Z,1.50
2024-05-09T05:58:44.991Z,1.50
2024-05-09T05:59:50.251Z,1.00
2024-05-09T06:00:53.499Z,1.60
2024-05-09T06:01:56.605Z,2.00
2024-05-09T06:03:02.171Z,1.50
2024-05-09T06:04:11.906Z,0.70
2024-05-09T06:05:16.885Z,1.90
2024-05-09T06:06:19.774Z,1.90
2024-05-09T06:07:24.327Z,1.00
2024-05-09T06:08:30.434Z,1.40
2024-05-09T06:09:36.814Z,0.90
2024-05-09T06:10:41.502Z,0.80
2024-05-09T06:11:48.117Z,1.30
2024-05-09T06:12:53.552Z,0.90
2024-05-09T06:13:56.752Z,1.00
2024-05-09T06:15:02.399Z,1.70
2024-05-09T06:16:07.829Z,1.20
2024-05-09T06:17:12.327Z,1.00
2024-05-09T06:18:17.542Z,1.70
2024-05-09T06:19:24.430Z,1.80
2024-05-09T06:20:36.447Z,0.60
2024-05-09T06:21:37.574Z,1.20
2024-05-09T06:22:41.957Z,1.90
2024-05-09T06:23:51.064Z,1.20
2024-05-09T06:24:55.694Z,1.00
2024-05-09T06:26:01.440Z,1.00
2024-05-09T06:27:04.950Z,1.00
2024-05-09T06:28:09.429Z,1.50
2024-05-09T06:29:12.890Z,1.00
2024-05-09T06:30:25.646Z,1.50
2024-05-09T06:31:22.673Z,1.40
2024-05-09T06:32:27.169Z,1.80
2024-05-09T06:33:34.654Z,1.30
2024-05-09T06:34:40.382Z,2.00
2024-05-09T06:35:45.656Z,1.70
2024-05-09T06:36:50.370Z,1.00
2024-05-09T06:37:56.272Z,1.70
2024-05-09T06:38:58.627Z,1.00
2024-05-09T06:40:02.305Z,1.70
2024-05-09T06:41:07.837Z,1.00
2024-05-09T06:42:14.059Z,1.60
2024-05-09T06:43:19.525Z,1.40
2024-05-09T06:44:23.886Z,1.50
2024-05-09T06:45:28.856Z,1.40
2024-05-09T06:46:32.253Z,1.30
2024-05-09T06:47:36.820Z,1.00
2024-05-09T06:48:40.386Z,1.00
2024-05-09T06:49:47.038Z,1.20
2024-05-09T06:50:55.114Z,1.20
2024-05-09T06:51:57.375Z,1.30
2024-05-09T06:53:01.546Z,1.00
2024-05-09T06:54:07.652Z,1.10
2024-05-09T06:55:09.870Z,1.00
2024-05-09T06:56:13.172Z,1.40
2024-05-09T06:57:15.696Z,1.00
2024-05-09T06:58:17.957Z,0.70
2024-05-09T06:59:20.130Z,2.10
2024-05-09T07:00:27.648Z,1.80
2024-05-09T07:01:26.534Z,1.20
2024-05-09T07:02:29.054Z,2.00
2024-05-09T07:03:31.361Z,1.00
2024-05-09T07:05:26.915Z,1.50
2024-05-09T07:06:29.512Z,1.10
2024-05-09T07:07:31.985Z,1.10
2024-05-09T07:08:34.682Z,1.40
2024-05-09T07:09:36.848Z,1.50
2024-05-09T07:10:38.989Z,1.00
2024-05-09T07:11:41.414Z,1.44
2024-05-09T07:12:43.776Z,1.00
2024-05-09T07:13:46.297Z,1.20
2024-05-09T07:14:48.375Z,1.50
2024-05-09T07:15:50.726Z,1.50
2024-05-09T07:16:53.064Z,1.00
2024-05-09T07:17:56.828Z,1.00
2024-05-09T07:19:00.067Z,2.00
2024-05-09T07:20:03.050Z,1.00
2024-05-09T07:21:06.121Z,1.00
2024-05-09T07:22:09.382Z,1.40
2024-05-09T07:23:12.088Z,1.70
2024-05-09T07:24:14.214Z,1.70
2024-05-09T07:25:16.478Z,1.10
2024-05-09T07:26:18.814Z,1.60
2024-05-09T07:27:21.002Z,1.20
2024-05-09T07:28:23.296Z,1.50
2024-05-09T07:29:25.437Z,1.90
2024-05-09T07:30:33.243Z,1.00
2024-05-09T07:31:31.818Z,2.00
2024-05-09T07:32:33.977Z,1.67
2024-05-09T07:33:36.209Z,1.40
2024-05-09T07:34:38.750Z,1.00
2024-05-09T07:35:41.008Z,0.90
2024-05-09T07:36:43.689Z,1.40
2024-05-09T07:37:45.936Z,1.20
2024-05-09T07:38:48.230Z,1.80
2024-05-09T07:39:50.672Z,1.60
2024-05-09T07:40:52.889Z,1.70
2024-05-09T07:41:55.155Z,1.60
2024-05-09T07:42:57.331Z,0.80
2024-05-09T07:43:59.646Z,1.20
2024-05-09T07:45:21.038Z,1.30
2024-05-09T07:47:04.521Z,1.00
2024-05-09T07:48:14.325Z,0.70
2024-05-09T07:49:44.789Z,1.20
2024-05-09T07:51:31.599Z,1.00
2024-05-09T07:53:32.726Z,1.00
2024-05-09T07:53:44.252Z,0.80
2024-05-09T07:54:45.356Z,1.50
2024-05-09T07:55:47.856Z,1.70
2024-05-09T07:56:50.467Z,1.40
2024-05-09T07:57:52.835Z,1.50
2024-05-09T07:58:55.021Z,1.40
2024-05-09T07:59:57.323Z,1.30
2024-05-09T08:00:59.924Z,1.50
2024-05-09T08:02:02.319Z,1.20
2024-05-09T08:03:04.935Z,1.00
2024-05-09T08:04:07.177Z,1.00
2024-05-09T08:05:10.058Z,0.90
2024-05-09T08:06:12.552Z,1.36
2024-05-09T08:07:15.183Z,1.40
2024-05-09T08:09:22.264Z,1.50
2024-05-09T08:10:28.578Z,1.90
2024-05-09T08:11:28.404Z,0.80
2024-05-09T08:12:30.629Z,1.00
2024-05-09T08:13:32.814Z,1.50
2024-05-09T08:14:35.050Z,1.80
2024-05-09T08:15:37.271Z,1.40
2024-05-09T08:16:39.511Z,1.80
2024-05-09T08:17:42.018Z,1.00
2024-05-09T08:18:44.144Z,1.00
2024-05-09T08:19:46.504Z,1.80
2024-05-09T08:20:48.933Z,1.20
2024-05-09T08:21:51.504Z,1.00
2024-05-09T08:22:54.124Z,1.00
2024-05-09T08:23:56.536Z,1.50
2024-05-09T08:24:58.559Z,0.30
2024-05-09T08:26:01.162Z,1.10
2024-05-09T08:27:03.857Z,0.70
2024-05-09T08:28:06.785Z,1.18
2024-05-09T08:29:09.406Z,1.36
2024-05-09T08:30:21.321Z,1.00
2024-05-09T08:31:16.168Z,1.00
2024-05-09T08:32:18.577Z,1.40
2024-05-09T08:33:21.151Z,1.00
2024-05-09T08:34:23.532Z,1.00
2024-05-09T08:35:26.101Z,2.00
2024-05-09T08:36:28.973Z,2.00
2024-05-09T08:37:36.628Z,1.70
2024-05-09T08:38:35.576Z,1.30
2024-05-09T08:39:38.032Z,1.70
2024-05-09T08:40:41.393Z,1.30
2024-05-09T08:41:47.437Z,1.50
2024-05-09T08:42:50.979Z,1.80
2024-05-09T08:43:53.759Z,0.90
2024-05-09T08:44:56.199Z,0.91
2024-05-09T08:45:59.203Z,1.10
2024-05-09T08:47:02.634Z,2.20
2024-05-09T08:48:11.268Z,1.30
2024-05-09T08:49:15.873Z,1.10
2024-05-09T08:50:31.424Z,1.00
2024-05-09T08:51:25.503Z,1.20
2024-05-09T08:52:27.880Z,1.10
2024-05-09T08:53:30.110Z,1.80
2024-05-09T08:54:32.662Z,1.40
2024-05-09T08:55:37.353Z,1.20
2024-05-09T08:56:43.941Z,1.30
2024-05-09T08:57:46.870Z,1.30
2024-05-09T08:58:50.894Z,1.64
2024-05-09T08:59:54.206Z,1.20
2024-05-09T09:00:57.652Z,1.20
2024-05-09T09:02:01.812Z,1.70
2024-05-09T09:03:07.901Z,1.50
2024-05-09T09:04:13.379Z,1.90
2024-05-09T09:05:16.929Z,0.70
2024-05-09T09:06:21.437Z,1.20
2024-05-09T09:07:25.978Z,1.30
2024-05-09T09:08:28.749Z,1.60
2024-05-09T09:09:32.581Z,1.60
2024-05-09T09:10:37.343Z,1.80
2024-05-09T09:11:39.539Z,1.80
2024-05-09T09:12:41.775Z,1.70
2024-05-09T09:13:43.888Z,1.70
2024-05-09T09:14:46.362Z,1.30
2024-05-09T09:15:52.011Z,1.40
2024-05-09T09:16:54.482Z,1.40
2024-05-09T09:17:57.714Z,1.60
2024-05-09T09:18:59.953Z,1.70
2024-05-09T09:20:02.946Z,1.20
2024-05-09T09:21:08.921Z,1.10
2024-05-09T09:22:12.379Z,1.20
2024-05-09T09:23:14.832Z,1.10
2024-05-09T09:24:16.898Z,1.10
2024-05-09T09:25:22.792Z,2.00
2024-05-09T09:26:24.942Z,1.20
2024-05-09T09:27:27.432Z,1.20
2024-05-09T09:28:29.859Z,1.50
2024-05-09T09:29:31.845Z,1.00
2024-05-09T09:30:37.517Z,1.00
2024-05-09T09:31:38.729Z,1.50
2024-05-09T09:32:41.063Z,1.55
2024-05-09T09:33:43.430Z,1.50
2024-05-09T09:34:47.157Z,1.30
2024-05-09T09:35:49.254Z,1.60
2024-05-09T09:36:55.056Z,1.30
2024-05-09T09:38:00.991Z,1.60
2024-05-09T09:39:03.824Z,1.20
2024-05-09T09:40:10.736Z,1.45
2024-05-09T09:41:16.449Z,1.50
2024-05-09T09:42:22.076Z,0.80
2024-05-09T09:43:26.136Z,1.30
2024-05-09T09:44:34.169Z,1.60
2024-05-09T09:45:37.432Z,0.90
2024-05-09T09:46:41.037Z,1.00
2024-05-09T09:47:44.736Z,1.60
2024-05-09T09:48:48.251Z,1.80
2024-05-09T09:49:51.206Z,0.90
2024-05-09T09:50:56.954Z,1.50
2024-05-09T09:52:01.128Z,1.10
2024-05-09T09:53:06.360Z,1.70
2024-05-09T09:54:11.061Z,1.20
2024-05-09T09:55:14.281Z,1.00
2024-05-09T09:56:17.759Z,1.40
2024-05-09T09:57:22.719Z,0.90
2024-05-09T09:58:25.793Z,1.40
2024-05-09T09:59:29.378Z,0.90
2024-05-09T10:00:34.063Z,1.00
2024-05-09T10:01:37.794Z,0.90
2024-05-09T10:02:43.290Z,0.80
2024-05-09T10:03:45.961Z,1.80
2024-05-09T10:04:49.628Z,0.00
2024-05-09T10:05:53.495Z,1.10
2024-05-09T10:07:02.985Z,1.00
2024-05-09T10:08:07.398Z,1.00
2024-05-09T10:09:13.715Z,1.55
2024-05-09T10:10:31.439Z,1.90
2024-05-09T10:11:34.889Z,0.80
2024-05-09T10:12:36.563Z,2.00
2024-05-09T10:13:40.932Z,1.00
2024-05-09T10:14:52.956Z,1.00
2024-05-09T10:15:55.312Z,1.50
2024-05-09T10:17:04.654Z,1.10
2024-05-09T10:18:07.151Z,1.00
2024-05-09T10:19:11.830Z,1.50
2024-05-09T10:20:21.431Z,1.50
2024-05-09T10:21:19.649Z,0.90
2024-05-09T10:22:27.914Z,1.60
2024-05-09T10:23:33.322Z,1.20
2024-05-09T10:24:52.514Z,1.40
2024-05-09T10:26:01.844Z,0.40
2024-05-09T10:27:04.418Z,1.40
2024-05-09T10:28:10.327Z,1.00
2024-05-09T10:29:17.160Z,1.20
2024-05-09T10:30:29.651Z,1.00
2024-05-09T10:31:29.801Z,1.00
2024-05-09T10:32:39.771Z,1.40
2024-05-09T10:33:47.088Z,1.10
2024-05-09T10:35:07.422Z,1.40
2024-05-09T10:36:17.134Z,1.50
2024-05-09T10:37:19.476Z,1.70
2024-05-09T10:38:22.954Z,1.50
2024-05-09T10:39:25.650Z,1.80
2024-05-09T10:40:31.402Z,1.27
2024-05-09T10:41:32.995Z,1.40
2024-05-09T10:42:38.331Z,1.20
2024-05-09T10:43:42.100Z,1.60
2024-05-09T10:44:44.284Z,2.30
2024-05-09T10:45:46.999Z,1.80
2024-05-09T10:46:49.842Z,1.91
2024-05-09T10:47:52.249Z,1.50
2024-05-09T10:48:56.384Z,2.20
2024-05-09T10:49:58.763Z,1.50
2024-05-09T10:51:01.644Z,1.00
2024-05-09T10:52:04.095Z,1.80
2024-05-09T10:53:06.364Z,1.60
2024-05-09T10:54:08.441Z,1.30
2024-05-09T10:55:10.476Z,1.78
2024-05-09T10:56:15.711Z,3.60
2024-05-09T10:57:18.339Z,15.00
2024-05-09T10:58:20.527Z,14.00
2024-05-09T10:59:23.020Z,9.10
2024-05-09T11:00:35.997Z,4.60
2024-05-09T11:01:36.179Z,3.10
2024-05-09T11:02:38.738Z,2.40
2024-05-09T11:03:41.826Z,2.00
2024-05-09T11:04:44.621Z,1.60
2024-05-09T11:05:47.318Z,1.80
2024-05-09T11:06:49.712Z,2.30
2024-05-09T11:07:52.191Z,2.00
2024-05-09T11:08:56.064Z,1.90
2024-05-09T11:09:58.454Z,2.00
2024-05-09T11:11:02.027Z,2.40
2024-05-09T11:12:05.251Z,2.30
2024-05-09T11:13:07.462Z,1.80
2024-05-09T11:14:12.954Z,1.90
2024-05-09T11:15:15.276Z,1.60
2024-05-09T11:16:21.187Z,1.10
2024-05-09T11:17:24.104Z,1.40
2024-05-09T11:18:30.369Z,1.20
2024-05-09T11:19:42.010Z,1.20
2024-05-09T11:20:44.720Z,1.30
2024-05-09T11:21:51.220Z,1.00
2024-05-09T11:22:53.323Z,1.70
2024-05-09T11:23:56.430Z,1.10
2024-05-09T11:24:58.830Z,1.80
2024-05-09T11:26:01.382Z,1.30
2024-05-09T11:27:05.676Z,0.90
2024-05-09T11:28:08.135Z,2.00
2024-05-09T11:29:10.336Z,1.80
2024-05-09T11:30:26.618Z,1.10
2024-05-09T11:31:22.388Z,1.40
2024-05-09T11:32:29.755Z,1.00
2024-05-09T11:33:34.500Z,0.90
2024-05-09T11:34:39.152Z,1.00
2024-05-09T11:35:42.242Z,0.80
2024-05-09T11:36:44.717Z,0.90
2024-05-09T11:37:47.045Z,0.80
2024-05-09T11:38:49.168Z,0.90
2024-05-09T11:39:51.317Z,1.60
2024-05-09T11:40:53.716Z,0.60
2024-05-09T11:41:56.845Z,1.80
2024-05-09T11:42:59.207Z,0.80
2024-05-09T11:44:01.835Z,0.60
2024-05-09T11:45:05.476Z,0.80
2024-05-09T11:46:08.985Z,1.00
2024-05-09T11:47:11.456Z,0.82
2024-05-09T11:48:13.967Z,0.90
2024-05-09T11:49:16.773Z,1.00
2024-05-09T11:50:27.021Z,0.90
2024-05-09T11:51:23.390Z,0.90
2024-05-09T11:52:25.454Z,0.80
2024-05-09T11:53:27.798Z,0.30
2024-05-09T11:54:29.817Z,0.80
2024-05-09T11:55:32.573Z,0.50
2024-05-09T11:56:34.922Z,0.70
2024-05-09T11:57:37.181Z,0.80
2024-05-09T11:58:39.495Z,1.30
2024-05-09T11:59:41.615Z,0.80
2024-05-09T12:00:44.413Z,0.30
2024-05-09T12:01:46.964Z,0.27
2024-05-09T12:02:49.228Z,0.80
2024-05-09T12:03:51.988Z,0.50
2024-05-09T12:04:54.543Z,0.91
2024-05-09T12:05:57.295Z,0.90
2024-05-09T12:06:59.885Z,1.00
2024-05-09T12:08:02.863Z,0.20
2024-05-09T12:09:05.158Z,0.80
2024-05-09T12:10:11.846Z,0.00
2024-05-09T12:11:12.922Z,1.00
2024-05-09T12:12:15.168Z,0.40
2024-05-09T12:13:17.366Z,0.60
2024-05-09T12:14:19.934Z,0.80
2024-05-09T12:15:22.227Z,1.00
2024-05-09T12:16:24.962Z,0.90
2024-05-09T12:17:27.268Z,1.00
2024-05-09T12:18:30.252Z,0.30
2024-05-09T12:19:32.627Z,0.82
2024-05-09T12:20:38.428Z,1.30
2024-05-09T12:21:39.521Z,0.30
2024-05-09T12:22:41.508Z,0.50
2024-05-09T12:23:43.521Z,0.44
2024-05-09T12:24:45.623Z,0.40
2024-05-09T12:25:47.867Z,0.80
2024-05-09T12:26:51.160Z,0.10
2024-05-09T12:27:53.772Z,0.55
2024-05-09T12:28:56.116Z,0.80
2024-05-09T12:29:58.257Z,1.10
2024-05-09T12:31:00.792Z,1.00
2024-05-09T12:32:04.081Z,1.00
2024-05-09T12:33:11.114Z,0.60
2024-05-09T12:34:15.493Z,0.73
2024-05-09T12:35:17.901Z,0.80
2024-05-09T12:36:20.342Z,0.70
2024-05-09T12:37:22.576Z,0.50
2024-05-09T12:38:24.751Z,1.50
2024-05-09T12:39:26.902Z,1.00
2024-05-09T12:40:36.405Z,1.20
2024-05-09T12:41:33.578Z,0.40
2024-05-09T12:42:35.676Z,0.20
2024-05-09T12:43:37.791Z,0.00
2024-05-09T12:44:40.095Z,0.90
2024-05-09T12:45:42.552Z,1.20
2024-05-09T12:46:45.004Z,0.80
2024-05-09T12:47:47.775Z,0.70
2024-05-09T12:48:50.515Z,0.18
2024-05-09T12:49:53.128Z,0.60
2024-05-09T12:50:55.391Z,0.90
2024-05-09T12:51:57.587Z,0.10
2024-05-09T12:52:59.662Z,0.80
2024-05-09T12:54:01.786Z,0.70
2024-05-09T12:55:04.691Z,0.20
2024-05-09T12:56:09.380Z,0.50
2024-05-09T12:57:11.680Z,0.50
2024-05-09T12:58:14.203Z,0.80
2024-05-09T12:59:17.696Z,0.80
2024-05-09T13:00:28.341Z,0.80
2024-05-09T13:01:31.924Z,0.20
2024-05-09T13:02:39.436Z,0.70
2024-05-09T13:03:44.807Z,0.90
2024-05-09T13:04:47.961Z,1.10
2024-05-09T13:05:53.392Z,1.90
2024-05-09T13:07:00.181Z,0.60
2024-05-09T13:08:04.878Z,0.10
2024-05-09T13:09:09.780Z,0.80
2024-05-09T13:10:19.998Z,2.00
2024-05-09T13:11:20.832Z,2.60
2024-05-09T13:12:30.804Z,1.70
2024-05-09T13:13:35.710Z,1.80
2024-05-09T13:14:43.380Z,1.20
2024-05-09T13:15:47.434Z,2.50
2024-05-09T13:16:50.904Z,4.40
2024-05-09T13:18:01.538Z,4.10
2024-05-09T13:19:04.353Z,3.60
2024-05-09T13:20:18.896Z,3.70
2024-05-09T13:21:19.717Z,2.50
2024-05-09T13:22:24.161Z,1.80
2024-05-09T13:23:26.783Z,1.50
2024-05-09T13:24:30.922Z,1.50
2024-05-09T13:25:40.130Z,1.10
2024-05-09T13:26:44.606Z,0.90
2024-05-09T13:27:52.291Z,0.80
2024-05-09T13:29:00.178Z,0.80
2024-05-09T13:30:12.068Z,0.80
2024-05-09T13:31:11.996Z,1.10
2024-05-09T13:32:17.102Z,0.80
2024-05-09T13:33:22.287Z,0.80
2024-05-09T13:34:26.420Z,0.30
2024-05-09T13:35:30.826Z,0.70
2024-05-09T13:36:36.162Z,0.73
2024-05-09T13:37:39.389Z,0.50
2024-05-09T13:38:43.141Z,0.60
2024-05-09T13:39:47.596Z,0.90
2024-05-09T13:40:51.047Z,0.82
2024-05-09T13:41:54.391Z,1.00
2024-05-09T13:42:58.262Z,0.00
2024-05-09T13:44:01.339Z,0.80
2024-05-09T13:45:07.662Z,0.70
2024-05-09T13:46:11.141Z,0.80
2024-05-09T13:47:17.977Z,2.50
2024-05-09T13:48:22.407Z,1.20
2024-05-09T13:49:27.756Z,0.90
2024-05-09T13:50:35.702Z,0.80
2024-05-09T13:51:37.883Z,1.50
2024-05-09T13:52:44.040Z,2.50
2024-05-09T13:53:49.208Z,2.30
2024-05-09T13:54:55.389Z,2.10
2024-05-09T13:55:58.609Z,2.70
2024-05-09T13:57:02.096Z,3.20
2024-05-09T13:58:06.365Z,4.09
2024-05-09T13:59:10.878Z,4.90
2024-05-09T14:00:27.405Z,6.20
2024-05-09T14:01:23.353Z,4.50
2024-05-09T14:02:30.327Z,4.20
2024-05-09T14:03:34.733Z,3.20
2024-05-09T14:04:39.522Z,2.70
2024-05-09T14:05:42.621Z,3.10
2024-05-09T14:06:46.144Z,2.60
2024-05-09T14:07:50.238Z,1.73
2024-05-09T14:08:52.853Z,0.80
2024-05-09T14:09:59.034Z,1.10
2024-05-09T14:11:02.128Z,1.80
2024-05-09T14:12:08.614Z,0.50
2024-05-09T14:13:13.654Z,0.70
2024-05-09T14:14:17.286Z,0.70
2024-05-09T14:15:20.582Z,0.90
2024-05-09T14:16:24.571Z,1.30
2024-05-09T14:17:30.991Z,1.60
2024-05-09T14:18:34.037Z,0.70
2024-05-09T14:19:37.563Z,1.70